Time;durP1;ratioP1;P1;durP2;ratioP2;P2;SDS_P1;SDS_P2;PMS_P1;PMS_P2;Temp;Humidity;BMP_temperature;BMP_pressure;BME280_temperature;BME280_humidity;BME280_pressure;Samples;Min_cycle;Max_cycle;Signal;HPM_P1;HPM_P2
2021/06/16 00:00:12;;;;;;;4.10;2.40;;;16.00;1.00;;;;;;5043396;28;20449;-76
2021/06/16 00:02:40;;;;;;;3.43;2.40;;;16.00;1.00;;;;;;5043796;28;20852;-76
2021/06/16 00:05:09;;;;;;;4.40;3.03;;;16.00;1.00;;;;;;5030469;28;20499;-76
2021/06/16 00:07:37;;;;;;;2.60;2.40;;;15.90;1.00;;;;;;5046363;28;20479;-75
2021/06/16 00:10:04;;;;;;;2.97;2.40;;;15.90;1.00;;;;;;5025173;28;20479;-75
2021/06/16 00:12:31;;;;;;;7.20;3.53;;;15.80;1.00;;;;;;5045920;28;20467;-76
2021/06/16 00:14:57;;;;;;;4.43;2.53;;;15.80;1.00;;;;;;5049560;28;20435;-76
2021/06/16 00:17:24;;;;;;;6.53;2.93;;;15.70;1.00;;;;;;5049537;28;20479;-75
2021/06/16 00:19:51;;;;;;;4.93;2.63;;;15.70;1.00;;;;;;5056693;28;20543;-76
2021/06/16 00:22:18;;;;;;;3.10;2.47;;;15.60;1.00;;;;;;5054459;28;20450;-76
2021/06/16 00:24:46;;;;;;;4.13;2.43;;;15.60;1.00;;;;;;5047514;28;20416;-76
2021/06/16 00:27:12;;;;;;;4.67;2.70;;;15.60;1.00;;;;;;5045560;28;20431;-76
2021/06/16 00:29:39;;;;;;;2.60;2.17;;;15.50;1.00;;;;;;5027399;28;20459;-76
2021/06/16 00:32:07;;;;;;;2.67;2.47;;;15.50;1.00;;;;;;5038461;28;21011;-75
2021/06/16 00:34:34;;;;;;;5.10;2.67;;;15.50;1.00;;;;;;5044847;28;20943;-75
2021/06/16 00:37:00;;;;;;;2.40;2.20;;;15.50;1.00;;;;;;5025086;28;20432;-76
2021/06/16 00:39:27;;;;;;;4.80;2.60;;;15.50;1.00;;;;;;5041084;28;20450;-75
2021/06/16 00:41:55;;;;;;;4.73;2.80;;;15.50;1.00;;;;;;5040710;28;20460;-75
2021/06/16 00:44:22;;;;;;;5.93;2.30;;;15.40;1.00;;;;;;5041548;28;22830;-75
2021/06/16 00:46:49;;;;;;;4.60;2.10;;;15.40;1.00;;;;;;5041389;28;20439;-75
2021/06/16 00:49:15;;;;;;;2.50;2.20;;;15.40;1.00;;;;;;5042272;28;20967;-75
2021/06/16 00:51:43;;;;;;;2.20;1.93;;;15.40;1.00;;;;;;5044604;28;20452;-76
2021/06/16 00:54:11;;;;;;;5.90;2.93;;;15.30;1.00;;;;;;5044771;28;20432;-75
2021/06/16 00:56:39;;;;;;;3.80;2.50;;;15.30;1.00;;;;;;5027604;28;20959;-75
2021/06/16 00:59:08;;;;;;;3.63;2.30;;;15.30;1.00;;;;;;5024694;28;20455;-77
2021/06/16 01:01:36;;;;;;;4.10;2.43;;;15.30;1.00;;;;;;5042589;28;20455;-76
2021/06/16 01:04:08;;;;;;;2.90;2.60;;;15.30;1.00;;;;;;5028360;28;20465;-75
2021/06/16 01:06:42;;;;;;;3.30;2.30;;;15.20;1.00;;;;;;5042312;28;21022;-76
2021/06/16 01:09:13;;;;;;;3.97;2.67;;;15.20;1.00;;;;;;5039950;28;21269;-75
2021/06/16 01:11:56;;;;;;;3.77;2.47;;;15.20;1.00;;;;;;5024465;28;20457;-76
2021/06/16 01:14:31;;;;;;;4.83;2.30;;;15.10;1.00;;;;;;5000170;28;20449;-75
2021/06/16 01:17:01;;;;;;;3.43;2.30;;;15.10;1.00;;;;;;5022593;28;20450;-75
2021/06/16 01:19:42;;;;;;;2.77;2.57;;;15.10;1.00;;;;;;5041287;28;20538;-76
2021/06/16 01:22:19;;;;;;;3.87;2.57;;;15.00;1.00;;;;;;5045714;28;20480;-76
2021/06/16 01:24:51;;;;;;;5.50;2.70;;;15.00;1.00;;;;;;5044993;28;21021;-76
2021/06/16 01:27:22;;;;;;;5.20;2.70;;;15.00;1.00;;;;;;5047773;28;20472;-76
2021/06/16 01:29:51;;;;;;;3.07;2.20;;;15.00;1.00;;;;;;5045913;28;20455;-76
2021/06/16 01:32:19;;;;;;;3.73;2.33;;;14.90;1.00;;;;;;5045979;28;20463;-76
2021/06/16 01:34:46;;;;;;;2.20;2.07;;;14.90;1.00;;;;;;5047446;28;20431;-76
2021/06/16 01:37:13;;;;;;;2.93;2.33;;;14.90;1.00;;;;;;5041682;28;21478;-75
2021/06/16 01:39:41;;;;;;;4.07;2.50;;;14.90;1.00;;;;;;5053660;28;21771;-75
2021/06/16 01:42:11;;;;;;;2.37;2.17;;;14.90;1.00;;;;;;5046415;28;20458;-75
2021/06/16 01:44:41;;;;;;;2.53;2.20;;;14.80;1.00;;;;;;5042112;28;20462;-76
2021/06/16 01:47:08;;;;;;;3.50;2.53;;;14.80;1.00;;;;;;5031758;28;20474;-75
2021/06/16 01:49:36;;;;;;;2.63;2.17;;;14.80;1.00;;;;;;5041806;28;20471;-76
2021/06/16 01:52:05;;;;;;;3.00;2.20;;;14.80;1.00;;;;;;5033605;28;20473;-76
2021/06/16 01:54:34;;;;;;;3.10;2.70;;;14.70;1.00;;;;;;5040813;28;20456;-74
2021/06/16 01:57:02;;;;;;;4.07;2.77;;;14.60;1.00;;;;;;5037918;28;20454;-75
2021/06/16 01:59:30;;;;;;;4.10;2.40;;;14.60;1.00;;;;;;5037047;28;21084;-77
2021/06/16 02:01:58;;;;;;;3.33;2.13;;;14.60;1.00;;;;;;5047890;22;20475;-75
2021/06/16 02:04:26;;;;;;;3.00;1.83;;;14.60;1.00;;;;;;5016609;28;20437;-75
2021/06/16 02:07:02;;;;;;;4.77;2.67;;;14.50;1.00;;;;;;5020044;28;20469;-75
2021/06/16 02:09:29;;;;;;;8.27;2.90;;;14.50;1.00;;;;;;5018201;28;20464;-75
2021/06/16 02:11:56;;;;;;;5.60;2.90;;;14.40;1.00;;;;;;5016959;28;21075;-75
2021/06/16 02:14:24;;;;;;;4.63;2.20;;;14.40;1.00;;;;;;5018140;28;22620;-75
2021/06/16 02:16:57;;;;;;;4.90;2.27;;;14.40;1.00;;;;;;5017404;28;20448;-75
2021/06/16 02:19:29;;;;;;;3.63;2.40;;;14.40;1.00;;;;;;5022267;28;20449;-75
2021/06/16 02:21:56;;;;;;;3.10;2.50;;;14.30;1.00;;;;;;5019688;28;20967;-75
2021/06/16 02:24:24;;;;;;;3.67;2.80;;;14.30;1.00;;;;;;5020048;28;20461;-75
2021/06/16 02:26:52;;;;;;;4.37;2.57;;;14.30;1.00;;;;;;5017349;28;20604;-75
2021/06/16 02:29:19;;;;;;;4.03;2.10;;;14.30;1.00;;;;;;5019965;28;20479;-75
2021/06/16 02:31:46;;;;;;;4.30;2.50;;;14.20;1.00;;;;;;5020376;28;21018;-75
2021/06/16 02:34:13;;;;;;;3.87;2.13;;;14.20;1.00;;;;;;5011609;28;20441;-75
2021/06/16 02:36:44;;;;;;;7.53;3.10;;;14.20;1.00;;;;;;5040713;28;20447;-75
2021/06/16 02:39:14;;;;;;;2.60;2.40;;;14.10;1.00;;;;;;5037484;28;20443;-76
2021/06/16 02:41:43;;;;;;;4.03;2.70;;;14.10;1.00;;;;;;5038799;28;20464;-75
2021/06/16 02:44:11;;;;;;;2.67;2.43;;;14.10;1.00;;;;;;5040348;28;20916;-75
2021/06/16 02:46:39;;;;;;;4.23;2.20;;;14.10;1.00;;;;;;5037794;28;20482;-75
2021/06/16 02:49:08;;;;;;;9.80;2.60;;;14.00;1.00;;;;;;5037128;28;20464;-75
2021/06/16 02:51:37;;;;;;;5.73;2.70;;;14.00;1.00;;;;;;5022287;28;20444;-76
2021/06/16 02:54:09;;;;;;;4.50;2.80;;;14.00;1.00;;;;;;5049596;28;20423;-75
2021/06/16 02:56:38;;;;;;;5.00;2.83;;;13.90;1.00;;;;;;5046080;28;20467;-75
2021/06/16 02:59:05;;;;;;;3.93;2.53;;;13.90;1.00;;;;;;5047420;28;20419;-75
2021/06/16 03:01:33;;;;;;;2.10;1.90;;;13.90;1.00;;;;;;5036877;28;21107;-75
2021/06/16 03:04:01;;;;;;;5.87;3.13;;;13.90;1.00;;;;;;5035098;28;20443;-75
2021/06/16 03:06:30;;;;;;;5.47;2.87;;;13.90;1.00;;;;;;5037371;28;21923;-74
2021/06/16 03:08:58;;;;;;;4.50;2.77;;;13.90;1.00;;;;;;5040906;28;20539;-75
2021/06/16 03:11:27;;;;;;;3.30;2.40;;;13.90;1.00;;;;;;5033945;28;20985;-75
2021/06/16 03:13:54;;;;;;;3.00;2.70;;;14.00;1.00;;;;;;5038818;28;20451;-75
2021/06/16 03:16:23;;;;;;;2.40;2.10;;;14.00;1.00;;;;;;5037619;28;20470;-75
2021/06/16 03:18:50;;;;;;;3.60;2.53;;;14.00;1.00;;;;;;5037542;28;20474;-75
2021/06/16 03:21:17;;;;;;;5.30;2.83;;;14.00;1.00;;;;;;5043424;28;20459;-75
2021/06/16 03:23:47;;;;;;;3.60;2.57;;;14.00;1.00;;;;;;5041277;28;20442;-75
2021/06/16 03:26:16;;;;;;;3.20;2.90;;;14.00;1.00;;;;;;5043016;28;20439;-75
2021/06/16 03:28:48;;;;;;;5.87;4.67;;;14.10;1.00;;;;;;5040199;28;20574;-75
2021/06/16 03:31:15;;;;;;;3.00;2.60;;;14.00;1.00;;;;;;5041735;28;20682;-74
2021/06/16 03:33:42;;;;;;;3.90;3.50;;;14.10;1.00;;;;;;5043591;28;20455;-75
2021/06/16 03:36:10;;;;;;;3.43;2.40;;;14.10;1.00;;;;;;5040101;28;20476;-75
2021/06/16 03:38:38;;;;;;;3.67;3.03;;;14.10;1.00;;;;;;5042303;28;20541;-75
2021/06/16 03:41:06;;;;;;;5.97;2.97;;;14.10;1.00;;;;;;5041623;28;20471;-75
2021/06/16 03:43:33;;;;;;;4.10;3.53;;;14.20;1.00;;;;;;5040764;28;20447;-75
2021/06/16 03:46:05;;;;;;;11.07;4.30;;;14.30;1.00;;;;;;5039191;28;20446;-75
2021/06/16 03:48:33;;;;;;;5.87;3.80;;;14.30;1.00;;;;;;5040868;28;20440;-76
2021/06/16 03:51:00;;;;;;;4.83;2.77;;;14.40;1.00;;;;;;5037997;28;20475;-75
2021/06/16 03:53:28;;;;;;;3.43;2.53;;;14.40;1.00;;;;;;5038107;28;20447;-75
2021/06/16 03:55:56;;;;;;;4.57;2.50;;;14.40;1.00;;;;;;5041239;28;20444;-76
2021/06/16 03:58:23;;;;;;;3.50;2.77;;;14.50;1.00;;;;;;5016166;28;20463;-76
2021/06/16 04:00:50;;;;;;;4.93;2.30;;;14.50;1.00;;;;;;5044068;28;20559;-76
2021/06/16 04:03:19;;;;;;;4.90;2.60;;;14.60;1.00;;;;;;5039368;28;20438;-76
2021/06/16 04:05:45;;;;;;;3.60;2.43;;;14.60;1.00;;;;;;5041844;28;20447;-76
2021/06/16 04:08:13;;;;;;;4.23;2.53;;;14.60;1.00;;;;;;5037219;28;20463;-76
2021/06/16 04:10:44;;;;;;;5.40;3.50;;;14.70;1.00;;;;;;5042814;28;20466;-75
2021/06/16 04:13:11;;;;;;;20.03;4.23;;;14.70;1.00;;;;;;5036218;28;20444;-76
2021/06/16 04:15:37;;;;;;;4.50;2.80;;;14.80;1.00;;;;;;5038161;28;20467;-76
2021/06/16 04:18:05;;;;;;;3.73;3.17;;;14.80;1.00;;;;;;5037743;28;20454;-75
2021/06/16 04:20:33;;;;;;;4.00;2.23;;;14.80;1.00;;;;;;5040097;28;22386;-75
2021/06/16 04:23:00;;;;;;;8.37;3.20;;;14.90;1.00;;;;;;5042196;28;20610;-76
2021/06/16 04:25:27;;;;;;;6.63;4.20;;;14.90;1.00;;;;;;5045396;28;20468;-76
2021/06/16 04:27:55;;;;;;;2.67;2.47;;;15.00;1.00;;;;;;5037969;28;20435;-76
2021/06/16 04:30:23;;;;;;;2.70;2.43;;;15.10;1.00;;;;;;5045645;28;20528;-78
2021/06/16 04:32:51;;;;;;;5.10;3.00;;;15.10;1.00;;;;;;5054264;28;21369;-78
2021/06/16 04:35:18;;;;;;;8.00;4.30;;;15.10;1.00;;;;;;5053987;28;20541;-77
2021/06/16 04:37:47;;;;;;;6.80;3.00;;;15.20;1.00;;;;;;5050320;28;21162;-77
2021/06/16 04:40:15;;;;;;;5.30;3.50;;;15.20;1.00;;;;;;5051098;28;21442;-76
2021/06/16 04:42:41;;;;;;;4.10;3.03;;;15.10;1.00;;;;;;5053998;28;20441;-77
2021/06/16 04:45:09;;;;;;;5.07;3.67;;;15.10;1.00;;;;;;5056311;28;20528;-79
2021/06/16 04:47:36;;;;;;;5.47;2.90;;;15.10;1.00;;;;;;5056236;28;20448;-79
2021/06/16 04:50:06;;;;;;;3.40;2.43;;;15.20;1.00;;;;;;5073344;28;20430;-75
2021/06/16 04:52:33;;;;;;;2.90;2.50;;;15.30;1.00;;;;;;5064013;28;20534;-77
2021/06/16 04:55:01;;;;;;;3.57;3.00;;;15.30;1.00;;;;;;5046904;28;20940;-77
2021/06/16 04:57:27;;;;;;;4.97;3.47;;;15.30;1.00;;;;;;5048555;28;21062;-77
2021/06/16 04:59:54;;;;;;;5.23;2.50;;;15.50;1.00;;;;;;5045758;28;21450;-76
2021/06/16 05:02:21;;;;;;;3.33;2.00;;;15.50;1.00;;;;;;5047555;28;20459;-77
2021/06/16 05:04:47;;;;;;;10.73;4.20;;;15.50;1.00;;;;;;5047703;28;20529;-77
2021/06/16 05:07:14;;;;;;;7.77;3.27;;;15.50;1.00;;;;;;5047170;28;20450;-76
2021/06/16 05:09:41;;;;;;;5.60;2.53;;;15.60;1.00;;;;;;5043106;28;20450;-76
2021/06/16 05:12:10;;;;;;;2.87;2.47;;;15.60;1.00;;;;;;5049981;28;20456;-75
2021/06/16 05:14:37;;;;;;;11.30;8.73;;;15.60;1.00;;;;;;5043504;28;21166;-76
2021/06/16 05:17:04;;;;;;;4.40;2.80;;;15.70;1.00;;;;;;5049926;28;20959;-75
2021/06/16 05:19:30;;;;;;;3.00;2.60;;;15.70;1.00;;;;;;5047309;28;20498;-76
2021/06/16 05:22:04;;;;;;;4.90;2.60;;;15.70;1.00;;;;;;5042715;28;20435;-76
2021/06/16 05:24:31;;;;;;;8.87;3.90;;;15.70;1.00;;;;;;5043765;28;21008;-75
2021/06/16 05:26:58;;;;;;;7.33;2.40;;;15.70;1.00;;;;;;5045415;28;22669;-76
2021/06/16 05:29:26;;;;;;;11.03;3.50;;;15.90;1.00;;;;;;5044380;28;20526;-76
2021/06/16 05:31:52;;;;;;;10.70;5.27;;;16.00;1.00;;;;;;5026071;28;21275;-76
2021/06/16 05:34:19;;;;;;;4.67;2.73;;;16.10;1.00;;;;;;5044774;28;20424;-74
2021/06/16 05:36:46;;;;;;;7.57;5.47;;;16.30;1.00;;;;;;5049165;28;20435;-74
2021/06/16 05:39:12;;;;;;;11.67;3.90;;;16.50;1.00;;;;;;5048517;28;20452;-74
2021/06/16 05:41:39;;;;;;;3.30;2.67;;;16.60;1.00;;;;;;5048753;28;20456;-76
2021/06/16 05:44:06;;;;;;;7.77;4.50;;;16.70;1.00;;;;;;5034643;28;21087;-76
2021/06/16 05:46:33;;;;;;;3.20;2.67;;;16.80;1.00;;;;;;5042716;28;20474;-76
2021/06/16 05:49:00;;;;;;;10.10;3.43;;;17.00;1.00;;;;;;5045720;28;20464;-76
2021/06/16 05:51:27;;;;;;;7.50;3.60;;;17.10;1.00;;;;;;5046614;28;24317;-76
2021/06/16 05:53:54;;;;;;;3.83;2.20;;;17.20;1.00;;;;;;5044437;28;20746;-77
2021/06/16 05:56:21;;;;;;;8.20;2.47;;;17.30;1.00;;;;;;5040194;28;20552;-77
2021/06/16 05:58:47;;;;;;;3.93;2.27;;;17.30;1.00;;;;;;5040020;28;20853;-77
2021/06/16 06:01:14;;;;;;;4.50;3.20;;;17.50;1.00;;;;;;5042116;28;20492;-77
2021/06/16 06:03:42;;;;;;;3.77;2.50;;;17.60;1.00;;;;;;5043785;28;20480;-77
2021/06/16 06:06:09;;;;;;;6.00;2.33;;;17.70;1.00;;;;;;5043637;28;20558;-77
2021/06/16 06:08:36;;;;;;;3.63;2.23;;;17.90;1.00;;;;;;5048731;28;20453;-78
2021/06/16 06:11:03;;;;;;;3.37;2.50;;;18.00;1.00;;;;;;5039483;28;20528;-77
2021/06/16 06:13:30;;;;;;;6.83;3.07;;;18.10;1.00;;;;;;5043299;28;21965;-78
2021/06/16 06:15:57;;;;;;;3.93;3.00;;;18.20;1.00;;;;;;5028792;28;20476;-77
2021/06/16 06:18:24;;;;;;;8.20;2.60;;;18.30;1.00;;;;;;5045876;28;20438;-78
2021/06/16 06:20:52;;;;;;;3.53;2.23;;;18.30;1.00;;;;;;5046047;28;20466;-77
2021/06/16 06:23:19;;;;;;;4.57;4.17;;;18.40;1.00;;;;;;5044243;28;20560;-77
2021/06/16 06:25:46;;;;;;;7.10;2.57;;;18.50;1.00;;;;;;5046980;28;20508;-77
2021/06/16 06:28:12;;;;;;;36.40;26.87;;;18.60;1.00;;;;;;5037262;28;20433;-78
2021/06/16 06:30:39;;;;;;;5.20;3.47;;;18.70;1.00;;;;;;5047568;28;21572;-78
2021/06/16 06:33:06;;;;;;;2.60;2.00;;;18.70;1.00;;;;;;5042736;28;20990;-78
2021/06/16 06:35:33;;;;;;;7.73;5.20;;;18.80;1.00;;;;;;5041876;28;20556;-78
2021/06/16 06:38:01;;;;;;;7.67;2.30;;;19.00;1.00;;;;;;5043659;28;20503;-77
2021/06/16 06:40:28;;;;;;;7.40;3.30;;;19.00;1.00;;;;;;5043238;28;20431;-77
2021/06/16 06:42:55;;;;;;;3.27;1.67;;;19.20;1.00;;;;;;5042294;28;20450;-79
2021/06/16 06:45:21;;;;;;;8.20;2.00;;;19.10;1.00;;;;;;5044646;28;20552;-78
2021/06/16 06:47:48;;;;;;;2.77;1.80;;;19.10;1.00;;;;;;5036577;28;20459;-77
2021/06/16 06:50:15;;;;;;;6.00;2.30;;;19.10;1.00;;;;;;5039238;28;20431;-77
2021/06/16 06:52:44;;;;;;;7.17;2.23;;;19.20;1.00;;;;;;5017962;28;20541;-77
2021/06/16 06:55:13;;;;;;;4.17;1.70;;;19.30;1.00;;;;;;5041897;28;20958;-79
2021/06/16 06:57:40;;;;;;;2.30;1.67;;;19.40;1.00;;;;;;5028074;28;20465;-77
2021/06/16 07:00:09;;;;;;;2.20;1.93;;;19.40;1.00;;;;;;5043192;28;20444;-77
2021/06/16 07:02:36;;;;;;;3.30;2.50;;;19.50;1.00;;;;;;5043664;28;20451;-77
2021/06/16 07:05:03;;;;;;;3.57;2.30;;;19.60;1.00;;;;;;5049159;28;20447;-77
2021/06/16 07:07:30;;;;;;;2.00;1.80;;;19.70;1.00;;;;;;5049249;28;20668;-77
2021/06/16 07:09:56;;;;;;;3.20;2.33;;;19.70;1.00;;;;;;5043673;28;20431;-78
2021/06/16 07:12:24;;;;;;;3.53;1.90;;;19.70;1.00;;;;;;5048614;28;20946;-77
2021/06/16 07:14:53;;;;;;;4.00;2.17;;;20.00;1.00;;;;;;5050199;28;20447;-76
2021/06/16 07:17:20;;;;;;;6.20;2.30;;;20.10;1.00;;;;;;5044473;28;20586;-77
2021/06/16 07:19:46;;;;;;;3.07;2.00;;;20.30;1.00;;;;;;5041852;28;20440;-77
2021/06/16 07:22:13;;;;;;;12.50;3.27;;;20.40;1.00;;;;;;5047930;28;20442;-78
2021/06/16 07:24:40;;;;;;;4.43;2.20;;;20.60;1.00;;;;;;5028083;28;20464;-76
2021/06/16 07:27:07;;;;;;;4.33;2.17;;;20.60;1.00;;;;;;5048939;28;20449;-78
2021/06/16 07:29:35;;;;;;;2.00;1.50;;;20.70;1.00;;;;;;5051634;28;20531;-78
2021/06/16 07:32:02;;;;;;;8.33;2.93;;;20.70;1.00;;;;;;5047723;28;20444;-77
2021/06/16 07:34:29;;;;;;;3.40;1.83;;;20.60;1.00;;;;;;5049020;28;20446;-76
2021/06/16 07:36:55;;;;;;;3.97;2.07;;;20.60;1.00;;;;;;5046434;28;20460;-79
2021/06/16 07:39:22;;;;;;;3.93;1.87;;;20.60;1.00;;;;;;5048307;28;20442;-77
2021/06/16 07:41:49;;;;;;;10.13;3.17;;;20.70;1.00;;;;;;5055548;28;20455;-77
2021/06/16 07:44:16;;;;;;;4.90;2.53;;;21.00;1.00;;;;;;5048882;28;20447;-77
2021/06/16 07:46:44;;;;;;;5.50;2.40;;;21.00;1.00;;;;;;5058096;28;20502;-78
2021/06/16 07:49:10;;;;;;;6.73;2.40;;;21.10;1.00;;;;;;5046411;28;20427;-77
2021/06/16 07:51:37;;;;;;;3.27;2.17;;;21.30;1.00;;;;;;5029884;28;20447;-77
2021/06/16 07:54:10;;;;;;;4.87;2.43;;;21.50;1.00;;;;;;5050362;28;20456;-77
2021/06/16 07:56:37;;;;;;;11.33;4.43;;;21.60;1.00;;;;;;5042074;28;21144;-77
2021/06/16 07:59:04;;;;;;;4.13;1.85;;;21.70;1.00;;;;;;5050674;28;21156;-77
2021/06/16 08:01:31;;;;;;;3.00;2.13;;;21.80;1.00;;;;;;5070712;23;20244;-75
2021/06/16 08:03:59;;;;;;;4.30;1.90;;;21.90;1.00;;;;;;5017729;28;20517;-74
2021/06/16 08:06:26;;;;;;;4.30;1.90;;;22.00;1.00;;;;;;5018491;28;20459;-74
2021/06/16 08:08:53;;;;;;;4.23;2.00;;;22.20;1.00;;;;;;5018751;28;20440;-75
2021/06/16 08:11:21;;;;;;;4.00;2.27;;;22.20;1.00;;;;;;5019760;28;20953;-75
2021/06/16 08:13:48;;;;;;;9.20;2.27;;;22.20;1.00;;;;;;5017212;28;20448;-76
2021/06/16 08:16:17;;;;;;;6.40;2.23;;;22.30;1.00;;;;;;5023817;28;20484;-75
2021/06/16 08:18:45;;;;;;;2.90;1.90;;;22.30;1.00;;;;;;5022969;28;20436;-76
2021/06/16 08:21:14;;;;;;;4.30;2.03;;;22.40;1.00;;;;;;5026042;28;20575;-74
2021/06/16 08:23:41;;;;;;;4.17;2.30;;;22.40;1.00;;;;;;5018389;28;20441;-74
2021/06/16 08:26:08;;;;;;;4.67;2.70;;;22.60;1.00;;;;;;5023165;28;20793;-73
2021/06/16 08:28:35;;;;;;;3.20;2.63;;;22.80;1.00;;;;;;5016506;28;20476;-73
2021/06/16 08:31:02;;;;;;;3.77;2.00;;;22.90;1.00;;;;;;5019320;28;21801;-74
2021/06/16 08:33:29;;;;;;;3.10;2.17;;;23.00;1.00;;;;;;5017674;28;20449;-75
2021/06/16 08:35:56;;;;;;;3.87;1.83;;;23.00;1.00;;;;;;5021550;28;20557;-75
2021/06/16 08:38:24;;;;;;;5.27;2.80;;;22.90;1.00;;;;;;5022279;28;20951;-75
2021/06/16 08:40:51;;;;;;;3.10;2.10;;;23.00;1.00;;;;;;5021152;28;20445;-75
2021/06/16 08:43:17;;;;;;;6.57;3.37;;;23.20;1.00;;;;;;5022233;28;20453;-75
2021/06/16 08:45:44;;;;;;;4.17;2.80;;;23.40;1.00;;;;;;5010757;28;20457;-75
2021/06/16 08:48:12;;;;;;;3.73;1.90;;;23.50;1.00;;;;;;5020374;28;20424;-74
2021/06/16 08:50:39;;;;;;;7.20;3.47;;;23.60;1.00;;;;;;5022887;28;20525;-74
2021/06/16 08:53:05;;;;;;;2.70;2.00;;;23.80;1.00;;;;;;5031178;28;20478;-75
2021/06/16 08:55:44;;;;;;;2.30;1.83;;;24.00;1.00;;;;;;5022107;28;20738;-78
2021/06/16 08:58:11;;;;;;;3.23;2.20;;;24.00;1.00;;;;;;5043571;28;20511;-81
2021/06/16 09:00:37;;;;;;;5.10;2.47;;;24.00;1.00;;;;;;5029796;28;20448;-81
2021/06/16 09:03:05;;;;;;;4.70;2.43;;;24.20;1.00;;;;;;5029066;28;20519;-76
2021/06/16 09:05:39;;;;;;;5.93;2.37;;;24.30;1.00;;;;;;5027708;28;21025;-76
2021/06/16 09:08:16;;;;;;;2.10;2.00;;;24.50;1.00;;;;;;5022084;28;20516;-79
2021/06/16 09:10:47;;;;;;;3.27;1.80;;;24.60;1.00;;;;;;5014771;28;20459;-79
2021/06/16 09:13:29;;;;;;;3.93;2.13;;;24.60;1.00;;;;;;5028296;28;20495;-79
2021/06/16 09:15:56;;;;;;;2.53;2.07;;;24.80;1.00;;;;;;5024365;28;20516;-78
2021/06/16 09:18:23;;;;;;;3.83;2.20;;;24.90;1.00;;;;;;5030502;28;20430;-78
2021/06/16 09:20:56;;;;;;;3.23;2.30;;;25.10;1.00;;;;;;5030236;28;20438;-76
2021/06/16 09:23:24;;;;;;;4.23;2.20;;;25.10;1.00;;;;;;5028411;28;20438;-76
2021/06/16 09:26:09;;;;;;;4.77;2.07;;;25.10;1.00;;;;;;5036322;28;21757;-79
2021/06/16 09:28:38;;;;;;;3.43;2.40;;;25.20;1.00;;;;;;5029035;28;20415;-76
2021/06/16 09:31:06;;;;;;;2.67;2.40;;;25.20;1.00;;;;;;5035721;28;20445;-78
2021/06/16 09:33:34;;;;;;;3.13;2.67;;;25.30;1.00;;;;;;5038406;28;20454;-83
2021/06/16 09:36:10;;;;;;;4.17;3.40;;;25.40;1.00;;;;;;5032341;28;20454;-81
2021/06/16 09:38:37;;;;;;;2.63;2.43;;;25.70;1.00;;;;;;5038685;28;20552;-81
2021/06/16 09:41:11;;;;;;;9.47;3.40;;;26.10;1.00;;;;;;5034620;28;20446;-81
2021/06/16 09:43:41;;;;;;;3.83;2.77;;;27.40;1.00;;;;;;5041040;28;20469;-82
2021/06/16 09:46:14;;;;;;;4.30;2.30;;;28.90;1.00;;;;;;5022552;28;20449;-84
2021/06/16 09:48:47;;;;;;;3.83;3.10;;;30.10;1.00;;;;;;5026108;28;20405;-81
2021/06/16 09:51:19;;;;;;;4.70;1.90;;;31.30;1.00;;;;;;5029009;28;20488;-82
2021/06/16 09:54:15;;;;;;;3.80;2.43;;;31.90;1.00;;;;;;5040606;28;20456;-81
2021/06/16 09:56:46;;;;;;;5.33;2.17;;;32.40;1.00;;;;;;5020072;28;20416;-80
2021/06/16 09:59:14;;;;;;;5.57;2.60;;;33.30;1.00;;;;;;5024390;28;20989;-81
2021/06/16 10:01:49;;;;;;;2.87;2.30;;;33.90;1.00;;;;;;5031818;28;20624;-82
2021/06/16 10:04:32;;;;;;;3.17;1.73;;;34.30;1.00;;;;;;5038962;28;20463;-87
2021/06/16 10:07:23;;;;;;;4.57;3.43;;;35.00;1.00;;;;;;5033592;28;20460;-88
2021/06/16 10:09:56;;;;;;;2.40;2.20;;;35.20;1.00;;;;;;5027941;28;20479;-87
2021/06/16 10:12:31;;;;;;;6.40;3.10;;;35.00;1.00;;;;;;5050864;28;20465;-86
2021/06/16 10:15:04;;;;;;;2.67;2.13;;;35.40;1.00;;;;;;5031539;28;20443;-88
2021/06/16 10:17:31;;;;;;;1.80;1.70;;;36.00;1.00;;;;;;5052863;28;20420;-90
2021/06/16 10:20:02;;;;;;;3.73;2.37;;;35.70;1.00;;;;;;5054937;28;20479;-88
2021/06/16 10:25:19;;;;;;;3.30;2.50;;;35.50;1.00;;;;;;5055522;28;20534;-86
2021/06/16 10:30:41;;;;;;;1.90;1.80;;;36.40;1.00;;;;;;5062142;28;20412;-90
2021/06/16 10:33:41;;;;;;;3.20;2.03;;;36.50;1.00;;;;;;5063493;28;20396;-89
2021/06/16 10:36:13;;;;;;;4.00;2.13;;;36.80;1.00;;;;;;5039361;28;20425;-89
2021/06/16 10:38:48;;;;;;;3.00;1.90;;;37.10;1.00;;;;;;5043820;28;20459;-87
2021/06/16 10:41:17;;;;;;;3.20;2.43;;;37.20;1.00;;;;;;5059675;28;20546;-88
2021/06/16 10:44:12;;;;;;;1.90;1.70;;;37.60;1.00;;;;;;5058386;28;20448;-88
2021/06/16 10:46:53;;;;;;;2.60;2.00;;;38.00;1.00;;;;;;5048450;28;20516;-89
2021/06/16 10:49:54;;;;;;;6.13;2.47;;;37.80;1.00;;;;;;5041461;28;20449;-87
2021/06/16 10:52:26;;;;;;;3.63;1.80;;;37.90;1.00;;;;;;5033971;28;20458;-86
2021/06/16 10:58:17;;;;;;;3.50;2.30;;;37.90;1.00;;;;;;5051190;28;20413;-90
2021/06/16 11:01:11;;;;;;;2.43;2.20;;;37.60;1.00;;;;;;5029059;28;20461;-87
2021/06/16 11:04:02;;;;;;;3.80;2.37;;;37.70;1.00;;;;;;5039365;28;20425;-89
2021/06/16 11:06:41;;;;;;;3.77;1.80;;;38.00;1.00;;;;;;5054648;28;20504;-86
2021/06/16 11:09:10;;;;;;;10.13;9.13;;;38.00;1.00;;;;;;5034127;28;20459;-78
2021/06/16 11:12:09;;;;;;;14.07;12.90;;;38.10;1.00;;;;;;5034734;28;20468;-81
2021/06/16 11:14:48;;;;;;;6.07;2.43;;;38.80;1.00;;;;;;5023631;28;20443;-78
2021/06/16 11:17:46;;;;;;;2.07;1.60;;;38.70;1.00;;;;;;5033994;28;20459;-81
2021/06/16 11:20:20;;;;;;;5.70;1.77;;;38.70;1.00;;;;;;5032251;28;20429;-76
2021/06/16 11:22:50;;;;;;;4.37;2.90;;;38.60;1.00;;;;;;5037545;28;20538;-79
2021/06/16 11:25:33;;;;;;;9.50;3.57;;;39.00;1.00;;;;;;5028008;28;21102;-78
2021/06/16 11:28:15;;;;;;;3.53;1.93;;;39.50;1.00;;;;;;5018943;28;21252;-78
2021/06/16 11:30:48;;;;;;;1.77;1.67;;;39.80;1.00;;;;;;5038189;28;20484;-77
2021/06/16 11:33:56;;;;;;;3.33;2.07;;;39.70;1.00;;;;;;5037461;28;20464;-76
2021/06/16 11:36:39;;;;;;;3.93;2.70;;;39.80;1.00;;;;;;4995237;28;20609;-79
2021/06/16 11:39:10;;;;;;;2.97;1.83;;;39.90;1.00;;;;;;5043020;28;20460;-76
2021/06/16 11:41:42;;;;;;;6.00;2.90;;;39.40;1.00;;;;;;5044098;28;20431;-77
2021/06/16 11:44:12;;;;;;;5.13;3.03;;;39.90;1.00;;;;;;5041308;28;20483;-77
2021/06/16 11:46:40;;;;;;;2.60;1.90;;;40.30;1.00;;;;;;5041885;28;20480;-77
2021/06/16 11:49:10;;;;;;;2.90;1.70;;;40.80;1.00;;;;;;5046534;28;20491;-76
2021/06/16 11:51:40;;;;;;;2.77;1.73;;;41.00;1.00;;;;;;5040629;28;20508;-76
2021/06/16 11:54:25;;;;;;;6.33;3.03;;;40.80;1.00;;;;;;5028189;28;21262;-76
2021/06/16 11:56:55;;;;;;;3.50;2.50;;;40.80;1.00;;;;;;5017835;28;20506;-77
2021/06/16 11:59:36;;;;;;;2.80;2.10;;;40.90;1.00;;;;;;5047710;28;20405;-76
2021/06/16 12:02:05;;;;;;;5.77;2.33;;;40.80;1.00;;;;;;5053010;28;20467;-78
2021/06/16 12:04:48;;;;;;;4.83;4.33;;;41.10;1.00;;;;;;5063879;28;20451;-75
2021/06/16 12:07:21;;;;;;;5.50;3.33;;;41.70;1.00;;;;;;5065690;28;20464;-76
2021/06/16 12:09:48;;;;;;;2.50;1.63;;;42.10;1.00;;;;;;5072207;28;20481;-76
2021/06/16 12:12:15;;;;;;;2.30;1.83;;;41.90;1.00;;;;;;5064297;28;20456;-75
2021/06/16 12:14:42;;;;;;;4.13;2.10;;;41.70;1.00;;;;;;5065221;28;20415;-76
2021/06/16 12:17:09;;;;;;;2.30;1.77;;;41.80;1.00;;;;;;5065752;28;20475;-74
2021/06/16 12:19:37;;;;;;;2.70;1.90;;;41.40;1.00;;;;;;5064574;28;20445;-75
2021/06/16 12:22:07;;;;;;;3.57;2.20;;;41.40;1.00;;;;;;5065164;28;20502;-76
2021/06/16 12:24:36;;;;;;;2.83;2.10;;;41.90;1.00;;;;;;5066256;28;20417;-77
2021/06/16 12:27:07;;;;;;;5.90;3.57;;;41.80;1.00;;;;;;5067573;28;20467;-78
2021/06/16 12:29:35;;;;;;;2.80;1.90;;;41.70;1.00;;;;;;5066378;28;20405;-78
2021/06/16 12:32:04;;;;;;;5.10;3.23;;;41.30;1.00;;;;;;5066401;28;20407;-79
2021/06/16 12:34:41;;;;;;;3.17;2.07;;;41.20;1.00;;;;;;5061237;28;20448;-79
2021/06/16 12:37:15;;;;;;;3.63;1.80;;;41.20;1.00;;;;;;5063997;28;20400;-80
2021/06/16 12:39:57;;;;;;;2.87;2.03;;;41.30;1.00;;;;;;5095072;22;20423;-79
2021/06/16 12:42:36;;;;;;;2.80;2.17;;;41.70;1.00;;;;;;5070483;28;20520;-81
2021/06/16 12:45:03;;;;;;;2.47;1.90;;;41.20;1.00;;;;;;5051441;28;20482;-78
2021/06/16 12:47:33;;;;;;;2.10;1.90;;;40.40;1.00;;;;;;5043240;28;20465;-78
2021/06/16 12:50:00;;;;;;;3.27;1.77;;;40.10;1.00;;;;;;5038026;28;20491;-79
2021/06/16 12:52:33;;;;;;;3.30;2.23;;;40.20;1.00;;;;;;5043841;28;20531;-77
2021/06/16 12:55:11;;;;;;;3.80;2.30;;;40.30;1.00;;;;;;5040236;28;20430;-78
2021/06/16 12:57:43;;;;;;;4.03;2.50;;;40.90;1.00;;;;;;5038208;28;20444;-79
2021/06/16 13:00:13;;;;;;;3.97;2.37;;;41.30;1.00;;;;;;5041698;28;20424;-80
2021/06/16 13:02:40;;;;;;;2.57;2.30;;;41.70;1.00;;;;;;5038513;28;20456;-78
2021/06/16 13:05:09;;;;;;;4.70;4.23;;;41.80;1.00;;;;;;5034223;28;20451;-79
2021/06/16 13:07:48;;;;;;;5.03;2.53;;;42.00;1.00;;;;;;5042705;28;20433;-83
2021/06/16 13:10:17;;;;;;;4.40;3.00;;;42.10;1.00;;;;;;5048629;28;20420;-84
2021/06/16 13:12:57;;;;;;;2.90;2.50;;;42.40;1.00;;;;;;5049918;28;20476;-85
2021/06/16 13:15:25;;;;;;;2.40;2.20;;;42.50;1.00;;;;;;5038711;28;20437;-84
2021/06/16 13:17:54;;;;;;;2.40;2.20;;;42.40;1.00;;;;;;5049474;28;20472;-85